sensor_id;sensor_type;location;lat;lon;timestamp;temperature;humidity
16114;DHT22;8161;-33.910;151.156;2022-08-30T00:02:16;21.20;99.90
16114;DHT22;8161;-33.910;151.156;2022-08-30T00:04:43;21.40;99.90
16114;DHT22;8161;-33.910;151.156;2022-08-30T00:07:11;21.70;99.90
16114;DHT22;8161;-33.910;151.156;2022-08-30T00:09:38;21.90;99.90
16114;DHT22;8161;-33.910;151.156;2022-08-30T00:12:05;22.00;99.90
16114;DHT22;8161;-33.910;151.156;2022-08-30T00:14:34;22.10;99.90
16114;DHT22;8161;-33.910;151.156;2022-08-30T00:17:01;22.20;99.90
16114;DHT22;8161;-33.910;151.156;2022-08-30T00:19:29;22.30;99.90
16114;DHT22;8161;-33.910;151.156;2022-08-30T00:21:56;22.50;99.90
16114;DHT22;8161;-33.910;151.156;2022-08-30T00:24:24;22.70;99.90
16114;DHT22;8161;-33.910;151.156;2022-08-30T00:26:51;22.80;99.90
16114;DHT22;8161;-33.910;151.156;2022-08-30T00:29:18;22.90;99.90
16114;DHT22;8161;-33.910;151.156;2022-08-30T00:31:46;23.00;99.90
16114;DHT22;8161;-33.910;151.156;2022-08-30T00:34:14;23.00;99.90
16114;DHT22;8161;-33.910;151.156;2022-08-30T00:36:43;23.00;99.90
16114;DHT22;8161;-33.910;151.156;2022-08-30T00:39:11;23.00;99.90
16114;DHT22;8161;-33.910;151.156;2022-08-30T00:41:39;23.10;99.90
16114;DHT22;8161;-33.910;151.156;2022-08-30T00:44:06;23.00;99.90
16114;DHT22;8161;-33.910;151.156;2022-08-30T00:46:34;23.20;99.90
16114;DHT22;8161;-33.910;151.156;2022-08-30T00:49:04;23.30;99.90
16114;DHT22;8161;-33.910;151.156;2022-08-30T00:51:33;23.20;99.90
16114;DHT22;8161;-33.910;151.156;2022-08-30T00:54:02;23.20;99.90
16114;DHT22;8161;-33.910;151.156;2022-08-30T00:56:30;23.40;99.90
16114;DHT22;8161;-33.910;151.156;2022-08-30T00:59:01;23.60;99.90
16114;DHT22;8161;-33.910;151.156;2022-08-30T01:01:29;23.60;99.90
16114;DHT22;8161;-33.910;151.156;2022-08-30T01:03:58;23.70;99.90
16114;DHT22;8161;-33.910;151.156;2022-08-30T01:06:26;23.60;99.90
16114;DHT22;8161;-33.910;151.156;2022-08-30T01:08:54;23.70;99.90
16114;DHT22;8161;-33.910;151.156;2022-08-30T01:11:23;23.70;99.90
16114;DHT22;8161;-33.910;151.156;2022-08-30T01:13:53;23.80;99.90
16114;DHT22;8161;-33.910;151.156;2022-08-30T01:16:22;23.80;99.90
16114;DHT22;8161;-33.910;151.156;2022-08-30T01:18:52;23.80;99.90
16114;DHT22;8161;-33.910;151.156;2022-08-30T01:21:41;23.90;99.90
16114;DHT22;8161;-33.910;151.156;2022-08-30T01:24:11;23.90;99.90
16114;DHT22;8161;-33.910;151.156;2022-08-30T01:26:39;24.10;99.90
16114;DHT22;8161;-33.910;151.156;2022-08-30T01:29:10;24.20;99.90
16114;DHT22;8161;-33.910;151.156;2022-08-30T01:31:39;24.40;99.90
16114;DHT22;8161;-33.910;151.156;2022-08-30T01:34:07;24.50;99.90
16114;DHT22;8161;-33.910;151.156;2022-08-30T01:36:38;24.50;99.90
16114;DHT22;8161;-33.910;151.156;2022-08-30T01:39:10;24.50;99.90
16114;DHT22;8161;-33.910;151.156;2022-08-30T01:41:38;24.40;99.90
16114;DHT22;8161;-33.910;151.156;2022-08-30T01:44:09;24.50;99.90
16114;DHT22;8161;-33.910;151.156;2022-08-30T01:46:41;24.50;99.90
16114;DHT22;8161;-33.910;151.156;2022-08-30T01:49:11;24.30;99.90
16114;DHT22;8161;-33.910;151.156;2022-08-30T01:51:39;24.40;99.90
16114;DHT22;8161;-33.910;151.156;2022-08-30T01:54:07;24.50;99.90
16114;DHT22;8161;-33.910;151.156;2022-08-30T01:56:34;24.70;99.90
16114;DHT22;8161;-33.910;151.156;2022-08-30T01:59:02;24.70;99.90
16114;DHT22;8161;-33.910;151.156;2022-08-30T02:01:32;24.80;99.90
16114;DHT22;8161;-33.910;151.156;2022-08-30T02:04:02;24.70;99.90
16114;DHT22;8161;-33.910;151.156;2022-08-30T02:06:30;24.70;99.90
16114;DHT22;8161;-33.910;151.156;2022-08-30T02:08:58;24.80;99.90
16114;DHT22;8161;-33.910;151.156;2022-08-30T02:11:26;24.90;99.90
16114;DHT22;8161;-33.910;151.156;2022-08-30T02:13:53;25.00;99.90
16114;DHT22;8161;-33.910;151.156;2022-08-30T02:16:22;25.10;99.90
16114;DHT22;8161;-33.910;151.156;2022-08-30T02:18:51;25.20;99.90
16114;DHT22;8161;-33.910;151.156;2022-08-30T02:21:20;24.90;99.90
16114;DHT22;8161;-33.910;151.156;2022-08-30T02:23:47;24.70;99.90
16114;DHT22;8161;-33.910;151.156;2022-08-30T02:26:15;24.70;99.90
16114;DHT22;8161;-33.910;151.156;2022-08-30T02:28:44;24.60;99.90
16114;DHT22;8161;-33.910;151.156;2022-08-30T02:31:11;24.70;99.90
16114;DHT22;8161;-33.910;151.156;2022-08-30T02:33:39;24.80;99.90
16114;DHT22;8161;-33.910;151.156;2022-08-30T02:36:07;24.90;99.90
16114;DHT22;8161;-33.910;151.156;2022-08-30T02:38:35;24.80;99.90
16114;DHT22;8161;-33.910;151.156;2022-08-30T02:41:03;25.00;99.90
16114;DHT22;8161;-33.910;151.156;2022-08-30T02:43:30;25.10;99.90
16114;DHT22;8161;-33.910;151.156;2022-08-30T02:45:57;25.30;99.90
16114;DHT22;8161;-33.910;151.156;2022-08-30T02:48:25;25.10;99.90
16114;DHT22;8161;-33.910;151.156;2022-08-30T02:50:52;25.10;99.90
16114;DHT22;8161;-33.910;151.156;2022-08-30T02:53:21;25.20;99.90
16114;DHT22;8161;-33.910;151.156;2022-08-30T02:55:48;25.30;99.90
16114;DHT22;8161;-33.910;151.156;2022-08-30T02:58:16;25.40;99.90
16114;DHT22;8161;-33.910;151.156;2022-08-30T03:00:43;25.50;99.90
16114;DHT22;8161;-33.910;151.156;2022-08-30T03:03:11;25.60;99.90
16114;DHT22;8161;-33.910;151.156;2022-08-30T03:05:38;25.70;99.90
16114;DHT22;8161;-33.910;151.156;2022-08-30T03:08:06;25.70;99.90
16114;DHT22;8161;-33.910;151.156;2022-08-30T03:10:33;25.60;99.90
16114;DHT22;8161;-33.910;151.156;2022-08-30T03:13:01;25.60;99.90
16114;DHT22;8161;-33.910;151.156;2022-08-30T03:15:29;25.60;99.90
16114;DHT22;8161;-33.910;151.156;2022-08-30T03:17:56;25.50;99.90
16114;DHT22;8161;-33.910;151.156;2022-08-30T03:20:24;25.40;99.90
16114;DHT22;8161;-33.910;151.156;2022-08-30T03:22:52;25.30;99.90
16114;DHT22;8161;-33.910;151.156;2022-08-30T03:25:20;25.40;99.90
16114;DHT22;8161;-33.910;151.156;2022-08-30T03:27:48;25.40;99.90
16114;DHT22;8161;-33.910;151.156;2022-08-30T03:30:17;25.40;99.90
16114;DHT22;8161;-33.910;151.156;2022-08-30T03:32:45;25.50;99.90
16114;DHT22;8161;-33.910;151.156;2022-08-30T03:35:16;25.60;99.90
16114;DHT22;8161;-33.910;151.156;2022-08-30T03:37:44;25.40;99.90
16114;DHT22;8161;-33.910;151.156;2022-08-30T03:40:15;25.50;99.90
16114;DHT22;8161;-33.910;151.156;2022-08-30T03:42:43;25.70;99.90
16114;DHT22;8161;-33.910;151.156;2022-08-30T03:45:12;25.90;99.90
16114;DHT22;8161;-33.910;151.156;2022-08-30T03:47:40;26.10;99.90
16114;DHT22;8161;-33.910;151.156;2022-08-30T03:50:08;26.20;99.90
16114;DHT22;8161;-33.910;151.156;2022-08-30T03:52:35;26.00;99.90
16114;DHT22;8161;-33.910;151.156;2022-08-30T03:55:03;25.90;99.90
16114;DHT22;8161;-33.910;151.156;2022-08-30T03:57:30;25.90;99.90
16114;DHT22;8161;-33.910;151.156;2022-08-30T03:59:58;25.80;99.90
16114;DHT22;8161;-33.910;151.156;2022-08-30T04:02:25;25.70;99.90
16114;DHT22;8161;-33.910;151.156;2022-08-30T04:04:53;25.70;99.90
16114;DHT22;8161;-33.910;151.156;2022-08-30T04:07:20;25.80;99.90
16114;DHT22;8161;-33.910;151.156;2022-08-30T04:09:47;25.80;99.90
16114;DHT22;8161;-33.910;151.156;2022-08-30T04:12:15;25.80;99.90
16114;DHT22;8161;-33.910;151.156;2022-08-30T04:14:42;25.90;99.90
16114;DHT22;8161;-33.910;151.156;2022-08-30T04:17:09;26.00;99.90
16114;DHT22;8161;-33.910;151.156;2022-08-30T04:19:37;26.00;99.90
16114;DHT22;8161;-33.910;151.156;2022-08-30T04:22:04;25.80;99.90
16114;DHT22;8161;-33.910;151.156;2022-08-30T04:24:32;25.90;99.90
16114;DHT22;8161;-33.910;151.156;2022-08-30T04:27:00;26.00;99.90
16114;DHT22;8161;-33.910;151.156;2022-08-30T04:29:27;26.00;99.90
16114;DHT22;8161;-33.910;151.156;2022-08-30T04:31:55;26.00;99.90
16114;DHT22;8161;-33.910;151.156;2022-08-30T04:34:22;26.00;99.90
16114;DHT22;8161;-33.910;151.156;2022-08-30T04:36:50;26.10;99.90
16114;DHT22;8161;-33.910;151.156;2022-08-30T04:39:18;26.30;99.90
16114;DHT22;8161;-33.910;151.156;2022-08-30T04:41:45;26.20;99.90
16114;DHT22;8161;-33.910;151.156;2022-08-30T04:44:13;26.10;99.90
16114;DHT22;8161;-33.910;151.156;2022-08-30T04:46:41;26.20;99.90
16114;DHT22;8161;-33.910;151.156;2022-08-30T04:49:08;26.20;99.90
16114;DHT22;8161;-33.910;151.156;2022-08-30T04:51:36;26.10;99.90
16114;DHT22;8161;-33.910;151.156;2022-08-30T04:54:03;26.10;99.90
16114;DHT22;8161;-33.910;151.156;2022-08-30T04:56:30;26.10;99.90
16114;DHT22;8161;-33.910;151.156;2022-08-30T04:58:59;26.00;99.90
16114;DHT22;8161;-33.910;151.156;2022-08-30T05:01:28;25.90;99.90
16114;DHT22;8161;-33.910;151.156;2022-08-30T05:03:57;25.80;99.90
16114;DHT22;8161;-33.910;151.156;2022-08-30T05:06:26;25.90;99.90
16114;DHT22;8161;-33.910;151.156;2022-08-30T05:08:54;25.90;99.90
16114;DHT22;8161;-33.910;151.156;2022-08-30T05:11:22;26.00;99.90
16114;DHT22;8161;-33.910;151.156;2022-08-30T05:13:49;25.90;99.90
16114;DHT22;8161;-33.910;151.156;2022-08-30T05:16:17;25.70;99.90
16114;DHT22;8161;-33.910;151.156;2022-08-30T05:18:47;25.80;99.90
16114;DHT22;8161;-33.910;151.156;2022-08-30T05:21:20;26.00;99.90
16114;DHT22;8161;-33.910;151.156;2022-08-30T05:23:48;26.20;99.90
16114;DHT22;8161;-33.910;151.156;2022-08-30T05:26:19;26.40;99.90
16114;DHT22;8161;-33.910;151.156;2022-08-30T05:28:47;26.40;99.90
16114;DHT22;8161;-33.910;151.156;2022-08-30T05:33:46;26.30;99.90
16114;DHT22;8161;-33.910;151.156;2022-08-30T05:36:15;26.40;99.90
16114;DHT22;8161;-33.910;151.156;2022-08-30T05:38:43;26.30;99.90
16114;DHT22;8161;-33.910;151.156;2022-08-30T05:41:11;26.40;99.90
16114;DHT22;8161;-33.910;151.156;2022-08-30T05:43:39;26.30;99.90
16114;DHT22;8161;-33.910;151.156;2022-08-30T05:46:09;26.40;99.90
16114;DHT22;8161;-33.910;151.156;2022-08-30T05:48:37;26.20;99.90
16114;DHT22;8161;-33.910;151.156;2022-08-30T05:51:12;26.30;99.90
16114;DHT22;8161;-33.910;151.156;2022-08-30T05:53:40;26.30;99.90
16114;DHT22;8161;-33.910;151.156;2022-08-30T05:56:13;26.30;99.90
16114;DHT22;8161;-33.910;151.156;2022-08-30T05:58:44;26.30;99.90
16114;DHT22;8161;-33.910;151.156;2022-08-30T06:03:49;26.40;99.90
16114;DHT22;8161;-33.910;151.156;2022-08-30T06:06:16;26.30;99.90
16114;DHT22;8161;-33.910;151.156;2022-08-30T06:08:44;26.10;99.90
16114;DHT22;8161;-33.910;151.156;2022-08-30T06:11:17;26.30;99.90
16114;DHT22;8161;-33.910;151.156;2022-08-30T06:13:45;26.30;99.90
16114;DHT22;8161;-33.910;151.156;2022-08-30T06:16:14;26.30;99.90
16114;DHT22;8161;-33.910;151.156;2022-08-30T06:18:43;26.30;99.90
16114;DHT22;8161;-33.910;151.156;2022-08-30T06:21:19;26.30;99.90
16114;DHT22;8161;-33.910;151.156;2022-08-30T06:23:46;26.20;99.90
16114;DHT22;8161;-33.910;151.156;2022-08-30T06:26:14;26.00;99.90
16114;DHT22;8161;-33.910;151.156;2022-08-30T06:28:41;26.00;99.90
16114;DHT22;8161;-33.910;151.156;2022-08-30T06:31:11;26.00;99.90
16114;DHT22;8161;-33.910;151.156;2022-08-30T06:33:39;26.00;99.90
16114;DHT22;8161;-33.910;151.156;2022-08-30T06:36:09;26.10;99.90
16114;DHT22;8161;-33.910;151.156;2022-08-30T06:38:37;26.00;99.90
16114;DHT22;8161;-33.910;151.156;2022-08-30T06:41:06;26.00;99.90
16114;DHT22;8161;-33.910;151.156;2022-08-30T06:43:34;25.90;99.90
16114;DHT22;8161;-33.910;151.156;2022-08-30T06:46:06;26.00;99.90
16114;DHT22;8161;-33.910;151.156;2022-08-30T06:48:34;26.10;99.90
16114;DHT22;8161;-33.910;151.156;2022-08-30T06:51:01;26.30;99.90
16114;DHT22;8161;-33.910;151.156;2022-08-30T06:53:29;26.50;99.90
16114;DHT22;8161;-33.910;151.156;2022-08-30T06:55:59;26.60;99.90
16114;DHT22;8161;-33.910;151.156;2022-08-30T06:58:28;26.60;99.90
16114;DHT22;8161;-33.910;151.156;2022-08-30T07:00:56;26.40;99.90
16114;DHT22;8161;-33.910;151.156;2022-08-30T07:03:23;26.20;99.90
16114;DHT22;8161;-33.910;151.156;2022-08-30T07:05:54;25.90;99.90
16114;DHT22;8161;-33.910;151.156;2022-08-30T07:08:22;25.40;99.90
16114;DHT22;8161;-33.910;151.156;2022-08-30T07:10:51;24.90;99.90
16114;DHT22;8161;-33.910;151.156;2022-08-30T07:13:21;24.70;99.90
16114;DHT22;8161;-33.910;151.156;2022-08-30T07:15:50;24.50;99.90
16114;DHT22;8161;-33.910;151.156;2022-08-30T07:18:17;24.30;99.90
16114;DHT22;8161;-33.910;151.156;2022-08-30T07:21:04;24.10;99.90
16114;DHT22;8161;-33.910;151.156;2022-08-30T07:23:32;24.00;99.90
16114;DHT22;8161;-33.910;151.156;2022-08-30T07:26:04;24.00;99.90
16114;DHT22;8161;-33.910;151.156;2022-08-30T07:28:32;23.90;99.90
16114;DHT22;8161;-33.910;151.156;2022-08-30T07:30:59;23.80;99.90
16114;DHT22;8161;-33.910;151.156;2022-08-30T07:33:27;23.70;99.90
16114;DHT22;8161;-33.910;151.156;2022-08-30T07:35:55;23.60;99.90
16114;DHT22;8161;-33.910;151.156;2022-08-30T07:38:25;23.50;99.90
16114;DHT22;8161;-33.910;151.156;2022-08-30T07:40:52;23.40;99.90
16114;DHT22;8161;-33.910;151.156;2022-08-30T07:43:20;23.30;99.90
16114;DHT22;8161;-33.910;151.156;2022-08-30T07:45:47;23.20;99.90
16114;DHT22;8161;-33.910;151.156;2022-08-30T07:48:14;23.20;99.90
16114;DHT22;8161;-33.910;151.156;2022-08-30T07:50:46;23.10;99.90
16114;DHT22;8161;-33.910;151.156;2022-08-30T07:53:14;23.00;99.90
16114;DHT22;8161;-33.910;151.156;2022-08-30T07:55:41;22.90;99.90
16114;DHT22;8161;-33.910;151.156;2022-08-30T07:58:08;22.80;99.90
16114;DHT22;8161;-33.910;151.156;2022-08-30T08:00:36;22.80;99.90
16114;DHT22;8161;-33.910;151.156;2022-08-30T08:03:09;22.60;99.90
16114;DHT22;8161;-33.910;151.156;2022-08-30T08:05:39;22.60;99.90
16114;DHT22;8161;-33.910;151.156;2022-08-30T08:08:07;22.50;99.90
16114;DHT22;8161;-33.910;151.156;2022-08-30T08:10:37;22.40;99.90
16114;DHT22;8161;-33.910;151.156;2022-08-30T08:13:04;22.30;99.90
16114;DHT22;8161;-33.910;151.156;2022-08-30T08:15:32;22.20;99.90
16114;DHT22;8161;-33.910;151.156;2022-08-30T08:17:59;22.10;99.90
16114;DHT22;8161;-33.910;151.156;2022-08-30T08:20:27;22.10;99.90
16114;DHT22;8161;-33.910;151.156;2022-08-30T08:22:55;22.00;99.90
16114;DHT22;8161;-33.910;151.156;2022-08-30T08:25:22;21.90;99.90
16114;DHT22;8161;-33.910;151.156;2022-08-30T08:27:50;21.90;99.90
16114;DHT22;8161;-33.910;151.156;2022-08-30T08:30:19;21.80;99.90
16114;DHT22;8161;-33.910;151.156;2022-08-30T08:32:48;21.70;99.90
16114;DHT22;8161;-33.910;151.156;2022-08-30T08:35:17;21.60;99.90
16114;DHT22;8161;-33.910;151.156;2022-08-30T08:37:44;21.50;99.90
16114;DHT22;8161;-33.910;151.156;2022-08-30T08:40:16;21.50;99.90
16114;DHT22;8161;-33.910;151.156;2022-08-30T08:42:50;21.40;99.90
16114;DHT22;8161;-33.910;151.156;2022-08-30T08:45:39;21.40;99.90
16114;DHT22;8161;-33.910;151.156;2022-08-30T08:50:57;21.30;99.90
16114;DHT22;8161;-33.910;151.156;2022-08-30T08:53:39;21.20;99.90
16114;DHT22;8161;-33.910;151.156;2022-08-30T08:56:16;21.20;99.90
16114;DHT22;8161;-33.910;151.156;2022-08-30T08:58:52;21.10;99.90
16114;DHT22;8161;-33.910;151.156;2022-08-30T09:01:25;21.00;99.90
16114;DHT22;8161;-33.910;151.156;2022-08-30T09:03:54;20.90;99.90
16114;DHT22;8161;-33.910;151.156;2022-08-30T09:09:21;20.80;99.90
16114;DHT22;8161;-33.910;151.156;2022-08-30T09:11:49;20.70;99.90
16114;DHT22;8161;-33.910;151.156;2022-08-30T09:14:24;20.70;99.90
16114;DHT22;8161;-33.910;151.156;2022-08-30T09:17:09;20.60;99.90
16114;DHT22;8161;-33.910;151.156;2022-08-30T09:22:24;20.50;99.90
16114;DHT22;8161;-33.910;151.156;2022-08-30T09:25:05;20.50;99.90
16114;DHT22;8161;-33.910;151.156;2022-08-30T09:27:40;20.50;99.90
16114;DHT22;8161;-33.910;151.156;2022-08-30T09:30:25;20.40;99.90
16114;DHT22;8161;-33.910;151.156;2022-08-30T09:32:55;20.40;99.90
16114;DHT22;8161;-33.910;151.156;2022-08-30T09:35:45;20.30;99.90
16114;DHT22;8161;-33.910;151.156;2022-08-30T09:38:21;20.30;99.90
16114;DHT22;8161;-33.910;151.156;2022-08-30T09:40:53;20.20;99.90
16114;DHT22;8161;-33.910;151.156;2022-08-30T09:43:26;20.20;99.90
16114;DHT22;8161;-33.910;151.156;2022-08-30T09:56:51;19.70;99.90
16114;DHT22;8161;-33.910;151.156;2022-08-30T10:04:54;19.60;99.90
16114;DHT22;8161;-33.910;151.156;2022-08-30T10:07:41;19.50;99.90
16114;DHT22;8161;-33.910;151.156;2022-08-30T10:10:25;19.40;99.90
16114;DHT22;8161;-33.910;151.156;2022-08-30T10:13:10;19.40;99.90
16114;DHT22;8161;-33.910;151.156;2022-08-30T10:19:01;19.30;99.90
16114;DHT22;8161;-33.910;151.156;2022-08-30T10:24:18;19.20;99.90
16114;DHT22;8161;-33.910;151.156;2022-08-30T10:34:55;19.00;99.90
16114;DHT22;8161;-33.910;151.156;2022-08-30T10:37:25;19.00;99.90
16114;DHT22;8161;-33.910;151.156;2022-08-30T10:39:58;18.90;99.90
16114;DHT22;8161;-33.910;151.156;2022-08-30T10:42:49;18.90;99.90
16114;DHT22;8161;-33.910;151.156;2022-08-30T10:45:17;18.90;99.90
16114;DHT22;8161;-33.910;151.156;2022-08-30T10:53:31;18.80;99.90
16114;DHT22;8161;-33.910;151.156;2022-08-30T10:56:14;18.70;99.90
16114;DHT22;8161;-33.910;151.156;2022-08-30T10:58:44;18.70;99.90
16114;DHT22;8161;-33.910;151.156;2022-08-30T11:04:19;18.60;99.90
16114;DHT22;8161;-33.910;151.156;2022-08-30T11:14:49;18.40;99.90
16114;DHT22;8161;-33.910;151.156;2022-08-30T11:17:39;18.40;99.90
16114;DHT22;8161;-33.910;151.156;2022-08-30T11:20:29;18.40;99.90
16114;DHT22;8161;-33.910;151.156;2022-08-30T11:25:54;18.30;99.90
16114;DHT22;8161;-33.910;151.156;2022-08-30T11:31:31;18.20;99.90
16114;DHT22;8161;-33.910;151.156;2022-08-30T11:34:00;18.20;99.90
16114;DHT22;8161;-33.910;151.156;2022-08-30T11:39:09;18.00;99.90
16114;DHT22;8161;-33.910;151.156;2022-08-30T11:41:44;18.00;99.90
16114;DHT22;8161;-33.910;151.156;2022-08-30T11:46:53;17.90;99.90
16114;DHT22;8161;-33.910;151.156;2022-08-30T12:00:07;17.70;99.90
16114;DHT22;8161;-33.910;151.156;2022-08-30T12:03:03;17.70;99.90
16114;DHT22;8161;-33.910;151.156;2022-08-30T12:08:54;17.60;99.90
16114;DHT22;8161;-33.910;151.156;2022-08-30T12:14:03;17.50;99.90
16114;DHT22;8161;-33.910;151.156;2022-08-30T12:19:25;17.40;99.90
16114;DHT22;8161;-33.910;151.156;2022-08-30T12:22:02;17.40;99.90
16114;DHT22;8161;-33.910;151.156;2022-08-30T12:24:45;17.30;99.90
16114;DHT22;8161;-33.910;151.156;2022-08-30T12:27:29;17.30;99.90
16114;DHT22;8161;-33.910;151.156;2022-08-30T12:30:06;17.40;99.90
16114;DHT22;8161;-33.910;151.156;2022-08-30T12:32:43;17.30;99.90
16114;DHT22;8161;-33.910;151.156;2022-08-30T12:35:19;17.30;99.90
16114;DHT22;8161;-33.910;151.156;2022-08-30T12:37:59;17.30;99.90
16114;DHT22;8161;-33.910;151.156;2022-08-30T12:40:27;17.30;99.90
16114;DHT22;8161;-33.910;151.156;2022-08-30T12:43:03;17.30;99.90
16114;DHT22;8161;-33.910;151.156;2022-08-30T12:45:37;17.20;99.90
16114;DHT22;8161;-33.910;151.156;2022-08-30T12:48:14;17.20;99.90
16114;DHT22;8161;-33.910;151.156;2022-08-30T12:50:49;17.20;99.90
16114;DHT22;8161;-33.910;151.156;2022-08-30T12:53:33;17.20;99.90
16114;DHT22;8161;-33.910;151.156;2022-08-30T12:56:06;17.10;99.90
16114;DHT22;8161;-33.910;151.156;2022-08-30T12:58:48;17.10;99.90
16114;DHT22;8161;-33.910;151.156;2022-08-30T13:12:01;16.90;99.90
16114;DHT22;8161;-33.910;151.156;2022-08-30T13:14:35;16.80;99.90
16114;DHT22;8161;-33.910;151.156;2022-08-30T13:17:10;16.80;99.90
16114;DHT22;8161;-33.910;151.156;2022-08-30T13:19:41;16.80;99.90
16114;DHT22;8161;-33.910;151.156;2022-08-30T13:22:23;16.70;99.90
16114;DHT22;8161;-33.910;151.156;2022-08-30T13:24:51;16.70;99.90
16114;DHT22;8161;-33.910;151.156;2022-08-30T13:27:19;16.70;99.90
16114;DHT22;8161;-33.910;151.156;2022-08-30T13:29:47;16.70;99.90
16114;DHT22;8161;-33.910;151.156;2022-08-30T13:32:15;16.70;99.90
16114;DHT22;8161;-33.910;151.156;2022-08-30T13:34:43;16.70;99.90
16114;DHT22;8161;-33.910;151.156;2022-08-30T13:37:18;16.70;99.90
16114;DHT22;8161;-33.910;151.156;2022-08-30T13:39:46;16.70;99.90
16114;DHT22;8161;-33.910;151.156;2022-08-30T13:42:14;16.60;99.90
16114;DHT22;8161;-33.910;151.156;2022-08-30T13:44:41;16.60;99.90
16114;DHT22;8161;-33.910;151.156;2022-08-30T13:47:09;16.50;99.90
16114;DHT22;8161;-33.910;151.156;2022-08-30T13:49:38;16.50;99.90
16114;DHT22;8161;-33.910;151.156;2022-08-30T13:52:07;16.40;99.90
16114;DHT22;8161;-33.910;151.156;2022-08-30T13:54:35;16.40;99.90
16114;DHT22;8161;-33.910;151.156;2022-08-30T13:57:02;16.30;99.90
16114;DHT22;8161;-33.910;151.156;2022-08-30T13:59:31;16.40;99.90
16114;DHT22;8161;-33.910;151.156;2022-08-30T14:02:00;16.40;99.90
16114;DHT22;8161;-33.910;151.156;2022-08-30T14:04:28;16.40;99.90
16114;DHT22;8161;-33.910;151.156;2022-08-30T14:06:55;16.30;99.90
16114;DHT22;8161;-33.910;151.156;2022-08-30T14:09:23;16.30;99.90
16114;DHT22;8161;-33.910;151.156;2022-08-30T14:11:50;16.30;99.90
16114;DHT22;8161;-33.910;151.156;2022-08-30T14:14:17;17.30;99.90
16114;DHT22;8161;-33.910;151.156;2022-08-30T14:16:45;16.20;99.90
16114;DHT22;8161;-33.910;151.156;2022-08-30T14:19:14;16.20;99.90
16114;DHT22;8161;-33.910;151.156;2022-08-30T14:21:42;16.20;99.90
16114;DHT22;8161;-33.910;151.156;2022-08-30T14:24:10;16.20;99.90
16114;DHT22;8161;-33.910;151.156;2022-08-30T14:26:47;16.20;99.90
16114;DHT22;8161;-33.910;151.156;2022-08-30T14:29:18;16.20;99.90
16114;DHT22;8161;-33.910;151.156;2022-08-30T14:31:47;16.10;99.90
16114;DHT22;8161;-33.910;151.156;2022-08-30T14:34:17;16.10;99.90
16114;DHT22;8161;-33.910;151.156;2022-08-30T14:36:45;16.10;99.90
16114;DHT22;8161;-33.910;151.156;2022-08-30T14:39:19;16.10;99.90
16114;DHT22;8161;-33.910;151.156;2022-08-30T14:41:50;16.10;99.90
16114;DHT22;8161;-33.910;151.156;2022-08-30T14:44:19;16.10;99.90
16114;DHT22;8161;-33.910;151.156;2022-08-30T14:46:47;16.10;99.90
16114;DHT22;8161;-33.910;151.156;2022-08-30T14:49:16;16.10;99.90
16114;DHT22;8161;-33.910;151.156;2022-08-30T14:51:44;16.00;99.90
16114;DHT22;8161;-33.910;151.156;2022-08-30T14:54:16;16.00;99.90
16114;DHT22;8161;-33.910;151.156;2022-08-30T14:56:44;16.00;99.90
16114;DHT22;8161;-33.910;151.156;2022-08-30T14:59:12;16.00;99.90
16114;DHT22;8161;-33.910;151.156;2022-08-30T15:01:40;15.90;99.90
16114;DHT22;8161;-33.910;151.156;2022-08-30T15:04:09;15.90;99.90
16114;DHT22;8161;-33.910;151.156;2022-08-30T15:06:39;15.90;99.90
16114;DHT22;8161;-33.910;151.156;2022-08-30T15:09:08;15.90;99.90
16114;DHT22;8161;-33.910;151.156;2022-08-30T15:11:36;15.90;99.90
16114;DHT22;8161;-33.910;151.156;2022-08-30T15:14:04;15.90;99.90
16114;DHT22;8161;-33.910;151.156;2022-08-30T15:16:34;15.80;99.90
16114;DHT22;8161;-33.910;151.156;2022-08-30T15:19:03;15.80;99.90
16114;DHT22;8161;-33.910;151.156;2022-08-30T15:21:35;15.80;99.90
16114;DHT22;8161;-33.910;151.156;2022-08-30T15:24:05;15.80;99.90
16114;DHT22;8161;-33.910;151.156;2022-08-30T15:26:34;15.80;99.90
16114;DHT22;8161;-33.910;151.156;2022-08-30T15:29:02;15.80;99.90
16114;DHT22;8161;-33.910;151.156;2022-08-30T15:31:30;15.80;99.90
16114;DHT22;8161;-33.910;151.156;2022-08-30T15:33:58;15.70;99.90
16114;DHT22;8161;-33.910;151.156;2022-08-30T15:36:28;15.70;99.90
16114;DHT22;8161;-33.910;151.156;2022-08-30T15:38:56;15.70;99.90
16114;DHT22;8161;-33.910;151.156;2022-08-30T15:41:26;15.70;99.90
16114;DHT22;8161;-33.910;151.156;2022-08-30T15:43:57;15.70;99.90
16114;DHT22;8161;-33.910;151.156;2022-08-30T15:46:33;15.60;99.90
16114;DHT22;8161;-33.910;151.156;2022-08-30T15:51:31;15.50;99.90
16114;DHT22;8161;-33.910;151.156;2022-08-30T15:53:59;15.40;99.90
16114;DHT22;8161;-33.910;151.156;2022-08-30T15:56:26;15.40;99.90
16114;DHT22;8161;-33.910;151.156;2022-08-30T15:58:53;15.40;99.90
16114;DHT22;8161;-33.910;151.156;2022-08-30T16:01:21;15.40;99.90
16114;DHT22;8161;-33.910;151.156;2022-08-30T16:03:49;15.40;99.90
16114;DHT22;8161;-33.910;151.156;2022-08-30T16:06:22;15.30;99.90
16114;DHT22;8161;-33.910;151.156;2022-08-30T16:08:54;15.30;99.90
16114;DHT22;8161;-33.910;151.156;2022-08-30T16:11:23;15.30;99.90
16114;DHT22;8161;-33.910;151.156;2022-08-30T16:13:55;15.30;99.90
16114;DHT22;8161;-33.910;151.156;2022-08-30T16:16:23;15.30;99.90
16114;DHT22;8161;-33.910;151.156;2022-08-30T16:18:51;17.00;99.90
16114;DHT22;8161;-33.910;151.156;2022-08-30T16:21:27;15.30;99.90
16114;DHT22;8161;-33.910;151.156;2022-08-30T16:23:56;15.30;99.90
16114;DHT22;8161;-33.910;151.156;2022-08-30T16:26:25;15.30;99.90
16114;DHT22;8161;-33.910;151.156;2022-08-30T16:28:54;15.20;99.90
16114;DHT22;8161;-33.910;151.156;2022-08-30T16:31:22;15.30;99.90
16114;DHT22;8161;-33.910;151.156;2022-08-30T16:33:50;15.30;99.90
16114;DHT22;8161;-33.910;151.156;2022-08-30T16:36:19;15.30;99.90
16114;DHT22;8161;-33.910;151.156;2022-08-30T16:38:46;15.20;99.90
16114;DHT22;8161;-33.910;151.156;2022-08-30T16:41:14;15.20;99.90
16114;DHT22;8161;-33.910;151.156;2022-08-30T16:43:42;15.20;99.90
16114;DHT22;8161;-33.910;151.156;2022-08-30T16:46:12;15.20;99.90
16114;DHT22;8161;-33.910;151.156;2022-08-30T16:48:41;15.20;99.90
16114;DHT22;8161;-33.910;151.156;2022-08-30T16:51:14;15.20;99.90
16114;DHT22;8161;-33.910;151.156;2022-08-30T16:53:42;15.20;99.90
16114;DHT22;8161;-33.910;151.156;2022-08-30T16:56:21;15.20;99.90
16114;DHT22;8161;-33.910;151.156;2022-08-30T16:58:50;15.20;99.90
16114;DHT22;8161;-33.910;151.156;2022-08-30T17:01:21;15.10;99.90
16114;DHT22;8161;-33.910;151.156;2022-08-30T17:03:50;15.10;99.90
16114;DHT22;8161;-33.910;151.156;2022-08-30T17:06:18;15.10;99.90